Time;durP1;ratioP1;P1;durP2;ratioP2;P2;SDS_P1;SDS_P2;PMS_P1;PMS_P2;Temp;Humidity;BMP_temperature;BMP_pressure;BME280_temperature;BME280_humidity;BME280_pressure;Samples;Min_cycle;Max_cycle;Signal;HPM_P1;HPM_P2
2023/12/09 00:01:45;;;;;;;25.85;16.90;;;;;;;-142.57;100.00;55789.94;4937177;28;20071;-81
2023/12/09 00:04:10;;;;;;;25.95;17.23;;;;;;;-142.57;100.00;55791.94;4951982;28;20144;-81
2023/12/09 00:06:36;;;;;;;27.50;17.33;;;;;;;-142.57;100.00;55761.66;4953854;28;20038;-82
2023/12/09 00:09:02;;;;;;;27.92;17.88;;;;;;;-142.57;100.00;55834.38;4958070;28;20497;-82
2023/12/09 00:11:27;;;;;;;26.52;17.60;;;;;;;-142.57;100.00;55757.59;4944576;28;20067;-82
2023/12/09 00:13:53;;;;;;;28.33;18.52;;;;;;;-142.57;100.00;55747.50;4958748;28;20775;-82
2023/12/09 00:16:19;;;;;;;29.40;16.60;;;;;;;-142.57;100.00;55785.91;4958261;28;20101;-81
2023/12/09 00:18:45;;;;;;;25.02;17.15;;;;;;;-142.57;100.00;55765.69;4960606;28;20081;-81
2023/12/09 00:21:12;;;;;;;24.25;16.55;;;;;;;-142.57;100.00;55747.50;4961163;28;20031;-81
2023/12/09 00:23:37;;;;;;;25.25;16.60;;;;;;;-142.57;100.00;55755.59;4937742;28;20063;-80
2023/12/09 00:26:03;;;;;;;27.98;17.50;;;;;;;-142.57;100.00;55737.41;4956418;28;20039;-78
2023/12/09 00:28:32;;;;;;;26.25;17.58;;;;;;;-142.57;100.00;55721.22;4965900;28;20027;-82
2023/12/09 00:30:57;;;;;;;27.60;18.17;;;;;;;-142.57;100.00;55757.59;4980666;28;20089;-85
2023/12/09 00:33:23;;;;;;;27.25;17.80;;;;;;;-142.57;100.00;55729.31;4980929;28;20470;-82
2023/12/09 00:35:49;;;;;;;28.05;18.40;;;;;;;-142.57;100.00;55779.84;4980098;28;20035;-84
2023/12/09 00:38:14;;;;;;;26.90;17.95;;;;;;;-142.57;100.00;55793.97;4976896;28;20475;-85
2023/12/09 00:40:40;;;;;;;29.42;18.10;;;;;;;-142.57;100.00;55810.13;4978232;28;20049;-84
2023/12/09 00:43:05;;;;;;;26.33;17.95;;;;;;;-142.57;100.00;55798.00;4983822;28;20114;-83
2023/12/09 00:45:31;;;;;;;26.50;16.70;;;;;;;-142.57;100.00;55822.25;4965695;28;20066;-83
2023/12/09 00:47:56;;;;;;;26.00;16.77;;;;;;;-142.57;100.00;55810.13;4980313;28;20038;-83
2023/12/09 00:50:22;;;;;;;27.65;17.63;;;;;;;-142.57;100.00;55850.56;4985615;28;20074;-83
2023/12/09 00:52:47;;;;;;;29.88;18.75;;;;;;;-142.57;100.00;55793.97;4981629;28;20126;-83
2023/12/09 00:55:13;;;;;;;26.40;16.80;;;;;;;-142.57;100.00;55838.44;5000214;28;20053;-82
2023/12/09 00:57:38;;;;;;;28.10;17.50;;;;;;;-142.57;100.00;55810.13;4966066;28;20030;-82
2023/12/09 01:00:05;;;;;;;28.15;17.35;;;;;;;-142.57;100.00;55789.94;4977896;28;20042;-84
2023/12/09 01:02:31;;;;;;;27.77;18.35;;;;;;;-142.57;100.00;55785.91;4977914;28;20617;-84
2023/12/09 01:04:57;;;;;;;26.77;17.48;;;;;;;-142.57;100.00;55816.19;4982871;28;20031;-83
2023/12/09 01:07:23;;;;;;;29.83;18.70;;;;;;;-142.57;100.00;55798.00;4965019;28;20030;-84
2023/12/09 01:09:48;;;;;;;27.05;17.65;;;;;;;-142.57;100.00;55789.94;4978300;28;20030;-84
2023/12/09 01:12:14;;;;;;;27.05;17.77;;;;;;;-142.57;100.00;55753.56;4978138;28;20045;-83
2023/12/09 01:14:39;;;;;;;28.10;17.63;;;;;;;-142.57;100.00;55773.78;4989302;28;20034;-83
2023/12/09 01:17:05;;;;;;;26.20;17.75;;;;;;;-142.57;100.00;55777.81;4979368;28;20035;-85
2023/12/09 01:19:30;;;;;;;30.13;16.77;;;;;;;-142.57;100.00;55793.97;4955855;28;20099;-83
2023/12/09 01:21:56;;;;;;;28.25;17.50;;;;;;;-142.57;100.00;55810.13;4973058;28;20109;-85
2023/12/09 01:24:21;;;;;;;27.45;18.75;;;;;;;-142.57;100.00;55812.16;4978747;28;20649;-83
2023/12/09 01:26:47;;;;;;;28.52;18.23;;;;;;;-142.57;100.00;55828.31;4996991;28;20038;-85
2023/12/09 01:29:12;;;;;;;28.42;17.83;;;;;;;-142.57;100.00;55806.09;4983879;28;20045;-84
2023/12/09 01:31:38;;;;;;;25.75;16.58;;;;;;;-142.57;100.00;55858.63;5015402;28;20099;-82
2023/12/09 01:34:07;;;;;;;26.80;17.95;;;;;;;-142.57;100.00;55842.47;5018215;28;20117;-85
2023/12/09 01:36:33;;;;;;;26.58;17.63;;;;;;;-142.57;100.00;55822.25;5017324;28;20029;-83
2023/12/09 01:38:58;;;;;;;29.05;17.95;;;;;;;-142.57;100.00;55800.03;5001092;28;20038;-84
2023/12/09 01:41:24;;;;;;;25.45;17.30;;;;;;;-142.57;100.00;55832.38;4996522;28;20058;-85
2023/12/09 01:43:50;;;;;;;27.48;18.25;;;;;;;-142.57;100.00;55812.16;4994956;28;20440;-82
2023/12/09 01:46:17;;;;;;;29.20;18.48;;;;;;;-142.57;100.00;55852.56;4995004;28;20041;-83
2023/12/09 01:48:43;;;;;;;29.77;18.23;;;;;;;-142.57;100.00;55860.66;4995467;28;20397;-83
2023/12/09 01:51:09;;;;;;;30.58;19.40;;;;;;;-142.57;100.00;55773.78;4994897;28;20129;-84
2023/12/09 01:53:35;;;;;;;27.73;18.42;;;;;;;-142.57;100.00;55798.00;4994832;28;20034;-84
2023/12/09 01:56:06;;;;;;;27.98;18.90;;;;;;;-142.57;100.00;55802.06;4995020;28;20042;-83
2023/12/09 01:58:35;;;;;;;31.75;19.38;;;;;;;-142.57;100.00;55753.56;4977283;28;20473;-85
2023/12/09 02:01:02;;;;;;;26.55;16.98;;;;;;;-142.57;100.00;55783.88;4978556;28;20038;-84
2023/12/09 02:03:31;;;;;;;29.63;18.65;;;;;;;-142.57;100.00;55781.84;4977745;28;20125;-83
2023/12/09 02:05:57;;;;;;;29.40;18.92;;;;;;;-142.57;100.00;55800.03;4994678;28;20037;-84
2023/12/09 02:08:22;;;;;;;31.20;20.52;;;;;;;-142.57;100.00;55763.66;4995169;28;20042;-83
2023/12/09 02:10:56;;;;;;;31.63;19.80;;;;;;;-142.57;100.00;55777.81;4995358;28;20034;-84
2023/12/09 02:13:30;;;;;;;30.65;19.88;;;;;;;-142.57;100.00;55777.81;4995171;28;20053;-84
2023/12/09 02:16:17;;;;;;;30.58;20.05;;;;;;;-142.57;100.00;55765.69;4994337;28;20118;-85
2023/12/09 02:18:44;;;;;;;32.85;19.90;;;;;;;-142.57;100.00;55798.00;4993938;28;20038;-83
2023/12/09 02:21:10;;;;;;;33.33;21.35;;;;;;;-142.57;100.00;55793.97;4995116;28;20038;-85
2023/12/09 02:23:35;;;;;;;29.38;19.60;;;;;;;-142.57;100.00;55779.84;4994688;28;20041;-81
2023/12/09 02:26:12;;;;;;;33.70;21.23;;;;;;;-142.57;100.00;55800.03;4994887;28;20470;-84
2023/12/09 02:28:44;;;;;;;35.05;21.83;;;;;;;-142.57;100.00;55765.69;4993883;28;20053;-84
2023/12/09 02:31:21;;;;;;;32.30;21.17;;;;;;;-142.57;100.00;55773.78;4994673;28;20034;-83
2023/12/09 02:33:46;;;;;;;32.85;21.30;;;;;;;-142.57;100.00;55759.63;4994563;28;20386;-83
2023/12/09 02:36:21;;;;;;;30.88;19.85;;;;;;;-142.57;100.00;55771.75;4994844;28;20033;-85
2023/12/09 02:38:49;;;;;;;31.20;20.05;;;;;;;-142.57;100.00;55775.78;4994021;28;20125;-85
2023/12/09 02:41:16;;;;;;;32.03;20.45;;;;;;;-142.57;100.00;55798.00;4994995;28;20129;-83
2023/12/09 02:43:45;;;;;;;31.63;20.45;;;;;;;-142.57;100.00;55775.78;4994831;28;20043;-83
2023/12/09 02:46:14;;;;;;;40.35;25.52;;;;;;;-142.57;100.00;55749.53;4994138;28;20032;-83
2023/12/09 02:48:40;;;;;;;45.92;25.50;;;;;;;-142.57;100.00;55729.31;4994587;28;20141;-81
2023/12/09 02:51:06;;;;;;;38.67;23.00;;;;;;;-142.57;100.00;55739.41;4976141;28;20129;-82
2023/12/09 02:53:32;;;;;;;36.00;22.23;;;;;;;-142.57;100.00;55709.09;4976981;28;20046;-82
2023/12/09 02:55:57;;;;;;;37.95;21.73;;;;;;;-142.57;100.00;55769.72;4994569;28;20089;-82
2023/12/09 02:58:23;;;;;;;36.30;21.60;;;;;;;-142.57;100.00;55777.81;4994515;28;20069;-83
2023/12/09 03:00:48;;;;;;;37.53;23.73;;;;;;;-142.57;100.00;55753.56;4994261;28;20042;-82
2023/12/09 03:03:14;;;;;;;35.10;23.25;;;;;;;-142.57;100.00;55761.66;4994111;28;20039;-83
2023/12/09 03:05:39;;;;;;;33.90;21.77;;;;;;;-142.57;100.00;55806.09;4994467;28;20161;-83
2023/12/09 03:08:05;;;;;;;37.92;23.55;;;;;;;-142.57;100.00;55773.78;4994047;28;20112;-83
2023/12/09 03:10:30;;;;;;;38.08;23.13;;;;;;;-142.57;100.00;55753.56;4995612;28;20053;-84
2023/12/09 03:12:56;;;;;;;37.42;22.67;;;;;;;-142.57;100.00;55757.59;4999607;28;20066;-82
2023/12/09 03:15:21;;;;;;;37.70;24.20;;;;;;;-142.57;100.00;55773.78;4997481;28;20053;-81
2023/12/09 03:17:47;;;;;;;35.08;22.30;;;;;;;-142.57;100.00;55802.06;5016565;28;20079;-83
2023/12/09 03:20:12;;;;;;;35.28;22.85;;;;;;;-142.57;100.00;55741.44;5015493;28;20045;-82
2023/12/09 03:22:38;;;;;;;39.53;23.83;;;;;;;-142.57;100.00;55789.94;5015384;28;20045;-82
2023/12/09 03:25:04;;;;;;;39.10;24.00;;;;;;;-142.57;100.00;55808.13;5010580;28;20354;-82
2023/12/09 03:27:30;;;;;;;37.20;23.38;;;;;;;-142.57;100.00;55810.13;4965797;28;20401;-82
2023/12/09 03:29:55;;;;;;;39.22;23.98;;;;;;;-142.57;100.00;55783.88;4998469;28;20034;-82
2023/12/09 03:32:21;;;;;;;35.67;23.02;;;;;;;-142.57;100.00;55781.84;4998843;28;20034;-82
2023/12/09 03:34:47;;;;;;;39.35;23.77;;;;;;;-142.57;100.00;55781.84;4998348;28;20370;-83
2023/12/09 03:37:12;;;;;;;44.45;26.95;;;;;;;-142.57;100.00;55773.78;4998507;28;20057;-83
2023/12/09 03:39:38;;;;;;;39.08;25.70;;;;;;;-142.57;100.00;55749.53;4998426;28;20042;-81
2023/12/09 03:42:03;;;;;;;44.80;28.33;;;;;;;-142.57;100.00;55745.47;4997911;28;20042;-84
2023/12/09 03:44:30;;;;;;;45.95;28.67;;;;;;;-142.57;100.00;55775.78;4981470;28;20046;-83
2023/12/09 03:46:56;;;;;;;44.42;27.10;;;;;;;-142.57;100.00;55729.31;4981030;28;20129;-83
2023/12/09 03:49:21;;;;;;;39.53;25.80;;;;;;;-142.57;100.00;55747.50;5005523;28;20481;-84
2023/12/09 03:51:47;;;;;;;39.67;25.17;;;;;;;-142.57;100.00;55785.91;5017290;28;20015;-84
2023/12/09 03:54:12;;;;;;;37.17;24.20;;;;;;;-142.57;100.00;55773.78;4968847;28;20034;-83
2023/12/09 03:56:38;;;;;;;36.60;23.95;;;;;;;-142.57;100.00;55749.53;5019887;28;20030;-83
2023/12/09 03:59:03;;;;;;;38.13;23.65;;;;;;;-142.57;100.00;55789.94;5019883;28;20050;-83
2023/12/09 04:01:29;;;;;;;37.60;23.95;;;;;;;-142.57;100.00;55789.94;5019546;28;20043;-83
2023/12/09 04:03:55;;;;;;;37.70;24.30;;;;;;;-142.57;100.00;55787.91;4998513;28;20110;-83
2023/12/09 04:06:21;;;;;;;40.50;23.83;;;;;;;-142.57;100.00;55765.69;4998041;28;20038;-82
2023/12/09 04:08:46;;;;;;;39.90;23.83;;;;;;;-142.57;100.00;55791.94;4997642;28;20072;-82
2023/12/09 04:11:13;;;;;;;39.00;25.02;;;;;;;-142.57;100.00;55761.66;4979869;28;20058;-83
2023/12/09 04:13:40;;;;;;;36.20;23.30;;;;;;;-142.57;100.00;55735.38;4997316;28;20545;-82
2023/12/09 04:16:06;;;;;;;38.33;24.23;;;;;;;-142.57;100.00;55771.75;4997695;28;20042;-83
2023/12/09 04:18:36;;;;;;;35.80;22.70;;;;;;;-142.57;100.00;55793.97;4979624;28;20026;-82
2023/12/09 04:21:01;;;;;;;35.08;22.77;;;;;;;-142.57;100.00;55765.69;4997083;28;20057;-83
2023/12/09 04:23:27;;;;;;;35.85;22.25;;;;;;;-142.57;100.00;55775.78;4996084;28;20489;-83
2023/12/09 04:25:52;;;;;;;36.92;23.45;;;;;;;-142.57;100.00;55777.81;4997853;28;20323;-82
2023/12/09 04:28:18;;;;;;;35.40;22.58;;;;;;;-142.57;100.00;55791.94;5004395;28;20035;-81
2023/12/09 04:30:46;;;;;;;37.25;24.05;;;;;;;-142.57;100.00;55769.72;4997340;28;20037;-81
2023/12/09 04:33:11;;;;;;;39.30;23.73;;;;;;;-142.57;100.00;55749.53;4996975;28;20069;-84
2023/12/09 04:35:37;;;;;;;37.33;24.17;;;;;;;-142.57;100.00;55753.56;4979109;28;20086;-84
2023/12/09 04:38:03;;;;;;;38.40;23.13;;;;;;;-142.57;100.00;55745.47;4997183;28;20042;-81
2023/12/09 04:40:28;;;;;;;39.45;25.17;;;;;;;-142.57;100.00;55761.66;4996834;28;20073;-83
2023/12/09 04:42:54;;;;;;;37.55;24.08;;;;;;;-142.57;100.00;55816.19;4996496;28;20022;-82
2023/12/09 04:45:19;;;;;;;35.30;22.83;;;;;;;-142.57;100.00;55765.69;4979177;28;20113;-83
2023/12/09 04:47:45;;;;;;;36.05;22.98;;;;;;;-142.57;100.00;55773.78;4997024;28;20505;-82
2023/12/09 04:50:10;;;;;;;39.75;24.08;;;;;;;-142.57;100.00;55818.22;4997338;28;20053;-83
2023/12/09 04:52:36;;;;;;;36.40;22.98;;;;;;;-142.57;100.00;55757.59;4997265;28;20026;-82
2023/12/09 04:55:03;;;;;;;33.08;21.38;;;;;;;-142.57;100.00;55804.06;4980095;28;20053;-82
2023/12/09 04:57:32;;;;;;;34.15;21.70;;;;;;;-142.57;100.00;55824.28;4997080;28;20038;-83
2023/12/09 04:59:57;;;;;;;36.70;21.13;;;;;;;-142.57;100.00;55800.03;4997386;28;20041;-82
2023/12/09 05:02:23;;;;;;;31.52;20.27;;;;;;;-142.57;100.00;55854.59;4980449;28;20034;-82
2023/12/09 05:04:48;;;;;;;38.40;22.35;;;;;;;-142.57;100.00;55816.19;4997459;28;20038;-83
2023/12/09 05:07:14;;;;;;;39.38;23.15;;;;;;;-142.57;100.00;55842.47;4996237;28;20149;-82
2023/12/09 05:09:40;;;;;;;38.05;23.27;;;;;;;-142.57;100.00;55820.25;4996581;28;20045;-83
2023/12/09 05:12:05;;;;;;;40.58;23.85;;;;;;;-142.57;100.00;55796.00;4996929;28;20437;-83
2023/12/09 05:14:31;;;;;;;35.88;21.65;;;;;;;-142.57;100.00;55761.66;4995981;28;20049;-82
2023/12/09 05:16:56;;;;;;;37.78;22.65;;;;;;;-142.57;100.00;55761.66;4995173;28;20088;-83
2023/12/09 05:19:22;;;;;;;35.63;22.25;;;;;;;-142.57;100.00;55769.72;4994665;28;20096;-82
2023/12/09 05:21:48;;;;;;;36.80;22.58;;;;;;;-142.57;100.00;55753.56;4995594;28;20038;-82
2023/12/09 05:24:13;;;;;;;36.42;21.20;;;;;;;-142.57;100.00;55787.91;4977474;28;20042;-83
2023/12/09 05:26:39;;;;;;;37.30;22.65;;;;;;;-142.57;100.00;55741.44;4995769;28;20030;-83
2023/12/09 05:29:04;;;;;;;35.75;21.55;;;;;;;-142.57;100.00;55830.34;4985410;28;20042;-82
2023/12/09 05:31:30;;;;;;;38.78;23.17;;;;;;;-142.57;100.00;55781.84;4996742;28;20129;-81
2023/12/09 05:33:55;;;;;;;38.63;22.73;;;;;;;-142.57;100.00;55773.78;5001215;28;20062;-82
2023/12/09 05:36:24;;;;;;;36.33;21.98;;;;;;;-142.57;100.00;55777.81;5006178;28;20046;-84
2023/12/09 05:38:52;;;;;;;37.42;20.92;;;;;;;-142.57;100.00;55814.19;4985945;28;20145;-83
2023/12/09 05:41:18;;;;;;;37.22;21.83;;;;;;;-142.57;100.00;55834.38;4978457;28;20042;-83
2023/12/09 05:43:43;;;;;;;36.13;21.23;;;;;;;-142.57;100.00;55741.44;4997082;28;20597;-83
2023/12/09 05:46:17;;;;;;;35.60;21.40;;;;;;;-142.57;100.00;55729.31;4986584;28;20038;-82
2023/12/09 05:48:42;;;;;;;40.65;23.27;;;;;;;-142.57;100.00;55717.19;5004498;28;20069;-82
2023/12/09 05:51:09;;;;;;;36.50;21.45;;;;;;;-142.57;100.00;55743.47;4995256;28;20038;-83
2023/12/09 05:53:35;;;;;;;35.88;21.55;;;;;;;-142.57;100.00;55759.63;4995425;28;20092;-81
2023/12/09 05:56:03;;;;;;;34.83;20.83;;;;;;;-142.57;100.00;55749.53;5014664;28;20038;-83
2023/12/09 05:58:29;;;;;;;40.28;23.60;;;;;;;-142.57;100.00;55777.81;5018959;28;20038;-83
2023/12/09 06:00:54;;;;;;;36.65;22.13;;;;;;;-142.57;100.00;55761.66;5000928;28;20042;-83
2023/12/09 06:03:20;;;;;;;39.50;23.88;;;;;;;-142.57;100.00;55737.41;4996632;28;20053;-83
2023/12/09 06:05:45;;;;;;;39.53;23.67;;;;;;;-142.57;100.00;55717.19;4995820;28;20053;-83
2023/12/09 06:08:11;;;;;;;42.63;23.70;;;;;;;-142.57;100.00;55690.94;4996499;28;20473;-83
2023/12/09 06:10:37;;;;;;;40.90;23.13;;;;;;;-142.57;100.00;55761.66;4998314;28;20117;-84
2023/12/09 06:13:02;;;;;;;42.15;24.02;;;;;;;-142.57;100.00;55773.78;4995837;28;20081;-84
2023/12/09 06:15:28;;;;;;;46.40;24.30;;;;;;;-142.57;100.00;55785.91;4996885;28;20526;-82
2023/12/09 06:17:53;;;;;;;43.25;23.85;;;;;;;-142.57;100.00;55789.94;4998463;28;20130;-83
2023/12/09 06:20:19;;;;;;;47.17;24.95;;;;;;;-142.57;100.00;55763.66;5015040;28;20042;-83
2023/12/09 06:22:44;;;;;;;49.72;26.20;;;;;;;-142.57;100.00;55785.91;5018224;28;20026;-82
2023/12/09 06:25:10;;;;;;;47.22;25.45;;;;;;;-142.57;100.00;55822.25;5018419;28;20046;-82
2023/12/09 06:27:36;;;;;;;53.17;26.33;;;;;;;-142.57;100.00;55796.00;5012466;28;20091;-81
2023/12/09 06:30:03;;;;;;;44.20;24.95;;;;;;;-142.57;100.00;55818.22;4990790;28;20023;-81
2023/12/09 06:32:28;;;;;;;46.28;26.27;;;;;;;-142.57;100.00;55802.06;4997693;28;20037;-84
2023/12/09 06:34:54;;;;;;;45.50;26.13;;;;;;;-142.57;100.00;55810.13;4995725;28;20390;-83
2023/12/09 06:37:19;;;;;;;46.35;24.88;;;;;;;-142.57;100.00;55783.88;4996358;28;20072;-82
2023/12/09 06:39:45;;;;;;;50.17;25.25;;;;;;;-142.57;100.00;55777.81;4996902;28;20097;-82
2023/12/09 06:42:10;;;;;;;51.95;25.58;;;;;;;-142.57;100.00;55800.03;4997498;28;20124;-83
2023/12/09 06:44:36;;;;;;;43.67;24.73;;;;;;;-142.57;100.00;55761.66;4996120;28;20110;-83
2023/12/09 06:47:02;;;;;;;42.72;24.88;;;;;;;-142.57;100.00;55773.78;5002504;28;20489;-82
2023/12/09 06:49:27;;;;;;;41.72;24.23;;;;;;;-142.57;100.00;55757.59;5001324;28;20480;-84
2023/12/09 06:51:53;;;;;;;47.17;25.70;;;;;;;-142.57;100.00;55745.47;4970568;28;20039;-81
2023/12/09 06:54:18;;;;;;;43.28;24.70;;;;;;;-142.57;100.00;55771.75;4962447;28;20518;-83
2023/12/09 06:56:44;;;;;;;44.95;24.83;;;;;;;-142.57;100.00;55725.28;4962628;28;20035;-83
2023/12/09 06:59:10;;;;;;;44.28;24.80;;;;;;;-142.57;100.00;55741.44;4963937;28;20160;-82
2023/12/09 07:01:35;;;;;;;49.05;27.35;;;;;;;-142.57;100.00;55747.50;4964239;28;20037;-80
2023/12/09 07:04:01;;;;;;;49.75;27.45;;;;;;;-142.57;100.00;55773.78;4946516;29;20027;-83
2023/12/09 07:06:29;;;;;;;50.10;27.95;;;;;;;-142.57;100.00;55741.44;4964174;28;20093;-84
2023/12/09 07:08:55;;;;;;;46.00;26.95;;;;;;;-142.57;100.00;55785.91;4965042;28;20039;-84
2023/12/09 07:11:21;;;;;;;48.78;27.98;;;;;;;-142.57;100.00;55749.53;4963609;28;20040;-83
2023/12/09 07:13:47;;;;;;;52.60;27.60;;;;;;;-142.57;100.00;55761.66;4964268;28;20402;-85
2023/12/09 07:16:13;;;;;;;50.72;27.70;;;;;;;-142.57;100.00;55761.66;4962725;28;20039;-81
2023/12/09 07:18:48;;;;;;;49.75;27.52;;;;;;;-142.57;100.00;55836.41;4963857;28;20072;-80
2023/12/09 07:21:14;;;;;;;50.00;28.27;;;;;;;-142.57;100.00;55783.88;4964840;28;20114;-85
2023/12/09 07:23:41;;;;;;;50.85;28.48;;;;;;;-142.57;100.00;55824.28;4947122;28;20082;-84
2023/12/09 07:26:08;;;;;;;55.10;29.65;;;;;;;-142.57;100.00;55818.22;4967548;28;20442;-82
2023/12/09 07:28:33;;;;;;;53.05;29.05;;;;;;;-142.57;100.00;55828.31;4995902;28;20045;-82
2023/12/09 07:30:59;;;;;;;49.63;27.45;;;;;;;-142.57;100.00;55806.09;4987247;28;20038;-83
2023/12/09 07:33:25;;;;;;;49.38;28.15;;;;;;;-142.57;100.00;55769.72;5011448;28;20038;-81
2023/12/09 07:35:51;;;;;;;49.90;29.38;;;;;;;-142.57;100.00;55816.19;4991345;28;20039;-80
2023/12/09 07:38:17;;;;;;;51.20;29.15;;;;;;;-142.57;100.00;55785.91;5011032;28;20054;-82
2023/12/09 07:40:43;;;;;;;55.58;30.17;;;;;;;-142.57;100.00;55789.94;5008825;28;20038;-82
2023/12/09 07:43:08;;;;;;;52.53;29.45;;;;;;;-142.57;100.00;55796.00;5012108;28;20393;-79
2023/12/09 07:45:34;;;;;;;53.00;30.05;;;;;;;-142.57;100.00;55749.53;5013877;28;20034;-82
2023/12/09 07:48:03;;;;;;;58.40;32.17;;;;;;;-142.57;100.00;55838.44;5012446;28;20045;-80
2023/12/09 07:50:32;;;;;;;52.85;30.00;;;;;;;-142.57;100.00;55826.31;5009662;28;20062;-83
2023/12/09 07:52:58;;;;;;;57.15;30.50;;;;;;;-142.57;100.00;55808.13;4993646;28;20121;-81
2023/12/09 07:55:24;;;;;;;51.50;29.48;;;;;;;-142.57;100.00;55834.38;5013106;28;20041;-83
2023/12/09 07:57:50;;;;;;;51.38;29.10;;;;;;;-142.57;100.00;55814.19;5009564;28;20038;-83
2023/12/09 08:00:17;;;;;;;51.15;28.38;;;;;;;-142.57;100.00;55769.72;5012509;28;20061;-81
2023/12/09 08:02:42;;;;;;;50.92;29.23;;;;;;;-142.57;100.00;55749.53;5014056;28;20073;-86
2023/12/09 08:05:08;;;;;;;55.65;29.13;;;;;;;-142.57;100.00;55743.47;4999604;28;20038;-84
2023/12/09 08:07:33;;;;;;;52.72;29.13;;;;;;;-142.57;100.00;55777.81;5016257;28;20070;-84
2023/12/09 08:10:00;;;;;;;54.20;29.70;;;;;;;-142.57;100.00;55759.63;5017618;28;20046;-84
2023/12/09 08:12:26;;;;;;;52.22;29.30;;;;;;;-142.57;100.00;55771.75;5006425;28;20030;-86
2023/12/09 08:14:51;;;;;;;51.78;30.00;;;;;;;-142.57;100.00;55806.09;5011018;28;20033;-84
2023/12/09 08:17:17;;;;;;;52.58;28.70;;;;;;;-142.57;100.00;55838.44;5007840;28;20042;-82
2023/12/09 08:19:42;;;;;;;50.00;27.98;;;;;;;-142.57;100.00;55838.44;4997658;28;20050;-83
2023/12/09 08:22:12;;;;;;;51.85;29.23;;;;;;;-142.57;100.00;55844.50;5008571;28;20046;-84
2023/12/09 08:24:37;;;;;;;49.88;28.85;;;;;;;-142.57;100.00;55789.94;5002123;28;20481;-83
2023/12/09 08:27:03;;;;;;;56.63;30.17;;;;;;;-142.57;100.00;55763.66;4997393;28;20030;-82
2023/12/09 08:29:28;;;;;;;48.92;29.23;;;;;;;-142.57;100.00;55789.94;5000579;28;20509;-82
2023/12/09 08:31:54;;;;;;;52.17;30.42;;;;;;;-142.57;100.00;55814.19;4996462;28;20040;-82
2023/12/09 08:34:19;;;;;;;55.95;31.55;;;;;;;-142.57;100.00;55816.19;4997460;28;20026;-83
2023/12/09 08:36:45;;;;;;;58.00;32.30;;;;;;;-142.57;100.00;55806.09;5004059;28;20477;-84
2023/12/09 08:39:11;;;;;;;56.30;30.85;;;;;;;-142.57;100.00;55834.38;4998202;28;20046;-82
2023/12/09 08:41:37;;;;;;;62.30;33.10;;;;;;;-142.57;100.00;55836.41;5003043;28;20103;-84
2023/12/09 08:44:04;;;;;;;54.85;31.65;;;;;;;-142.57;100.00;55822.25;5016238;28;20150;-83
2023/12/09 08:46:30;;;;;;;54.47;31.42;;;;;;;-142.57;100.00;55814.19;5019055;28;20050;-83
2023/12/09 08:48:56;;;;;;;55.67;31.30;;;;;;;-142.57;100.00;55818.22;5015234;28;20042;-82
2023/12/09 08:51:22;;;;;;;53.55;30.27;;;;;;;-142.57;100.00;55870.75;4997415;28;20049;-85
2023/12/09 08:53:48;;;;;;;54.45;31.40;;;;;;;-142.57;100.00;55846.50;4997129;28;20034;-84
2023/12/09 08:56:13;;;;;;;49.78;29.08;;;;;;;-142.57;100.00;55834.38;4995716;28;20038;-83
2023/12/09 08:58:39;;;;;;;48.85;27.05;;;;;;;-142.57;100.00;55862.69;4976521;28;20031;-83
2023/12/09 09:01:08;;;;;;;54.15;29.20;;;;;;;-142.57;100.00;55866.72;4976814;28;20035;-84
2023/12/09 09:03:33;;;;;;;49.70;29.08;;;;;;;-142.57;100.00;55854.59;4977088;28;20030;-86
2023/12/09 09:05:59;;;;;;;51.03;28.63;;;;;;;-142.57;100.00;55878.84;4979850;28;20470;-85
2023/12/09 09:08:25;;;;;;;51.40;30.33;;;;;;;-142.57;100.00;55858.63;4976851;28;20823;-82
2023/12/09 09:10:50;;;;;;;52.45;28.52;;;;;;;-142.57;100.00;55850.56;4979817;28;20082;-84
2023/12/09 09:13:19;;;;;;;55.30;30.17;;;;;;;-142.57;100.00;55870.75;4980091;28;20062;-86
2023/12/09 09:15:47;;;;;;;50.05;29.42;;;;;;;-142.57;100.00;55856.63;4976027;28;20074;-85
2023/12/09 09:18:13;;;;;;;47.38;28.13;;;;;;;-142.57;100.00;55856.63;4980685;28;20114;-85
2023/12/09 09:20:40;;;;;;;46.83;28.60;;;;;;;-142.57;100.00;55903.09;4977595;28;20039;-83
2023/12/09 09:23:07;;;;;;;48.30;28.23;;;;;;;-142.57;100.00;55921.28;4976737;28;20035;-84
2023/12/09 09:25:32;;;;;;;46.10;27.90;;;;;;;-142.57;100.00;55899.03;4980942;28;20529;-84
2023/12/09 09:27:58;;;;;;;48.00;27.70;;;;;;;-142.57;100.00;55939.47;4988231;28;20027;-83
2023/12/09 09:30:23;;;;;;;49.88;27.40;;;;;;;-142.57;100.00;55911.16;4977251;28;20394;-84
2023/12/09 09:32:49;;;;;;;42.72;25.90;;;;;;;-142.57;100.00;55911.16;4991055;28;20130;-85
2023/12/09 09:35:15;;;;;;;46.58;28.45;;;;;;;-142.57;100.00;55903.09;4976157;28;20070;-84
2023/12/09 09:37:40;;;;;;;43.75;26.63;;;;;;;-142.57;100.00;55911.16;4976731;28;20125;-84
2023/12/09 09:40:06;;;;;;;44.05;27.08;;;;;;;-142.57;100.00;55866.72;4975729;28;20482;-85
2023/12/09 09:42:32;;;;;;;48.60;27.55;;;;;;;-142.57;100.00;55878.84;4976071;28;20050;-84
2023/12/09 09:45:27;;;;;;;43.13;26.40;;;;;;;-142.57;100.00;55897.03;4976699;28;20118;-83
2023/12/09 09:47:57;;;;;;;41.35;25.73;;;;;;;-142.57;100.00;55890.97;4916946;29;20419;-85
2023/12/09 09:50:24;;;;;;;41.55;25.48;;;;;;;-142.57;100.00;55895.00;4917073;29;20058;-84
2023/12/09 09:52:51;;;;;;;49.35;27.67;;;;;;;-142.57;100.00;55903.09;4916960;29;20051;-84
2023/12/09 09:55:19;;;;;;;45.72;26.80;;;;;;;-142.57;100.00;55854.59;4916810;29;20115;-83
2023/12/09 09:57:47;;;;;;;45.67;27.23;;;;;;;-142.57;100.00;55923.28;4932137;29;20040;-87
2023/12/09 10:00:14;;;;;;;47.85;29.20;;;;;;;-142.57;100.00;55915.22;4916417;29;20040;-85
2023/12/09 10:02:44;;;;;;;46.42;28.75;;;;;;;-142.57;100.00;55947.53;4916703;29;20047;-85
2023/12/09 10:05:15;;;;;;;43.22;27.33;;;;;;;-142.57;100.00;55866.72;4915990;29;20544;-85
2023/12/09 10:07:42;;;;;;;41.17;25.63;;;;;;;-142.57;100.00;55951.59;4917860;29;20064;-85
2023/12/09 10:10:11;;;;;;;46.47;27.13;;;;;;;-142.57;100.00;55890.97;4933886;29;20088;-84
2023/12/09 10:12:37;;;;;;;51.28;28.45;;;;;;;-142.57;100.00;55890.97;4918305;29;20181;-86
2023/12/09 10:15:03;;;;;;;50.05;28.70;;;;;;;-142.57;100.00;55923.28;4922547;29;20040;-86
2023/12/09 10:17:30;;;;;;;45.97;28.77;;;;;;;-142.57;100.00;55882.88;4924016;29;20035;-84
2023/12/09 10:19:57;;;;;;;42.17;27.27;;;;;;;-142.57;100.00;55919.25;4927539;29;20044;-82
2023/12/09 10:22:30;;;;;;;41.83;27.02;;;;;;;-142.57;100.00;55945.53;4928209;29;20076;-85
2023/12/09 10:24:56;;;;;;;43.47;26.83;;;;;;;-142.57;100.00;55929.34;4989005;28;20039;-82
2023/12/09 10:27:25;;;;;;;49.70;29.17;;;;;;;-142.57;100.00;55949.56;4985963;28;20126;-85
2023/12/09 10:29:52;;;;;;;44.40;27.90;;;;;;;-142.57;100.00;55947.53;4977807;28;20181;-87
2023/12/09 10:32:21;;;;;;;43.30;27.52;;;;;;;-142.57;100.00;55949.56;4959243;28;20043;-84
2023/12/09 10:34:48;;;;;;;40.58;26.48;;;;;;;-142.57;100.00;55955.63;4977224;28;20063;-84
2023/12/09 10:37:16;;;;;;;42.58;27.48;;;;;;;-142.57;100.00;55959.66;4977509;28;20094;-84
2023/12/09 10:39:49;;;;;;;43.17;26.42;;;;;;;-142.57;100.00;55935.41;4961295;28;20128;-86
2023/12/09 10:42:15;;;;;;;43.15;26.38;;;;;;;-142.57;100.00;55971.78;4978217;28;20039;-83
2023/12/09 10:44:41;;;;;;;42.10;27.25;;;;;;;-142.57;100.00;55979.88;4978203;28;20105;-81
2023/12/09 10:47:07;;;;;;;39.90;25.70;;;;;;;-142.57;100.00;56022.31;4960069;28;20035;-84
2023/12/09 10:49:33;;;;;;;49.42;28.48;;;;;;;-142.57;100.00;55987.94;4977574;28;20042;-83
2023/12/09 10:51:59;;;;;;;46.78;27.92;;;;;;;-142.57;100.00;55979.88;4976033;28;20038;-79